Time;durP1;ratioP1;P1;durP2;ratioP2;P2;SDS_P1;SDS_P2;PMS_P1;PMS_P2;Temp;Humidity;BMP_temperature;BMP_pressure;BME280_temperature;BME280_humidity;BME280_pressure;Samples;Min_cycle;Max_cycle;Signal;HPM_P1;HPM_P2
2021/03/10 03:47:40;;;;;;;39.30;21.27;;;4.90;99.90;;;;;;4685356;26;87130;-82
2021/03/10 03:50:06;;;;;;;39.47;20.88;;;5.00;99.90;;;;;;4897516;28;86887;-84
2021/03/10 03:52:31;;;;;;;36.15;19.83;;;5.00;99.90;;;;;;4894536;28;88381;-82
2021/03/10 03:54:58;;;;;;;33.63;19.88;;;5.00;99.90;;;;;;4897492;28;86908;-83
2021/03/10 03:57:23;;;;;;;34.95;20.85;;;5.00;99.90;;;;;;4903948;28;86932;-83
2021/03/10 03:59:49;;;;;;;35.60;20.60;;;5.00;99.90;;;;;;4894947;28;87262;-82
2021/03/10 04:02:15;;;;;;;37.85;20.67;;;5.10;99.90;;;;;;4896316;28;86890;-83
2021/03/10 04:04:40;;;;;;;37.00;20.25;;;5.10;99.90;;;;;;4901744;28;86682;-83
2021/03/10 04:07:06;;;;;;;34.85;20.25;;;5.00;99.90;;;;;;4904071;28;87109;-83
2021/03/10 04:09:32;;;;;;;42.80;22.98;;;5.10;99.90;;;;;;4898451;28;86892;-83
2021/03/10 04:11:57;;;;;;;39.53;20.67;;;5.00;99.90;;;;;;4898631;28;87057;-83
2021/03/10 04:14:23;;;;;;;38.63;21.60;;;5.10;99.90;;;;;;4898031;28;86604;-82
2021/03/10 04:16:49;;;;;;;37.85;21.90;;;5.00;99.90;;;;;;4898721;28;88487;-84
2021/03/10 04:19:15;;;;;;;35.80;20.55;;;5.00;99.90;;;;;;4914022;28;87788;-83
2021/03/10 04:21:40;;;;;;;37.55;20.20;;;5.00;99.90;;;;;;4893005;28;86825;-83
2021/03/10 04:24:07;;;;;;;36.78;20.17;;;5.00;99.90;;;;;;4899817;28;86860;-80
2021/03/10 04:26:33;;;;;;;37.53;20.70;;;5.00;99.90;;;;;;4901963;28;87332;-80
2021/03/10 04:28:59;;;;;;;39.60;22.08;;;5.00;99.90;;;;;;4908512;28;87406;-82
2021/03/10 04:31:25;;;;;;;36.90;20.85;;;5.00;99.90;;;;;;4883882;28;86758;-82
2021/03/10 04:33:50;;;;;;;30.92;19.45;;;5.00;99.90;;;;;;4902046;28;85994;-82
2021/03/10 04:36:16;;;;;;;44.08;21.00;;;4.90;99.90;;;;;;4897717;28;87249;-81
2021/03/10 04:38:43;;;;;;;35.63;19.35;;;4.90;99.90;;;;;;4879947;28;90543;-83
2021/03/10 04:41:09;;;;;;;35.63;19.02;;;4.80;99.90;;;;;;4904290;28;87755;-82
2021/03/10 04:43:34;;;;;;;34.97;19.33;;;4.80;99.90;;;;;;4894677;28;86914;-81
2021/03/10 04:46:00;;;;;;;32.60;18.40;;;4.70;99.90;;;;;;4892335;28;87076;-80
2021/03/10 04:48:26;;;;;;;34.40;19.80;;;4.70;99.90;;;;;;4884291;28;87049;-81
2021/03/10 04:50:51;;;;;;;36.15;20.80;;;4.70;99.90;;;;;;4880363;28;86758;-82
2021/03/10 04:53:17;;;;;;;38.28;20.77;;;4.70;99.90;;;;;;4891521;28;86968;-81
2021/03/10 04:55:43;;;;;;;37.13;20.98;;;4.70;99.90;;;;;;4893170;28;86901;-82
2021/03/10 04:58:09;;;;;;;37.20;20.98;;;4.80;99.90;;;;;;4896004;28;86278;-83
2021/03/10 05:00:35;;;;;;;38.75;22.02;;;4.80;99.90;;;;;;4895716;28;86434;-81
2021/03/10 05:03:00;;;;;;;38.53;21.70;;;4.80;99.90;;;;;;4883308;28;87200;-81
2021/03/10 05:05:26;;;;;;;43.50;23.10;;;4.90;99.90;;;;;;4891981;28;89106;-81
2021/03/10 05:07:52;;;;;;;38.55;21.88;;;4.90;99.90;;;;;;4893994;28;91232;-82
2021/03/10 05:10:18;;;;;;;43.80;21.98;;;4.90;99.90;;;;;;4895269;28;87036;-83
2021/03/10 05:12:44;;;;;;;39.25;22.50;;;4.90;99.90;;;;;;4897194;28;87332;-83
2021/03/10 05:15:10;;;;;;;42.13;24.05;;;4.80;99.90;;;;;;4896694;28;87763;-82
2021/03/10 05:17:36;;;;;;;40.17;22.50;;;4.80;99.90;;;;;;4900981;28;90124;-82
2021/03/10 05:20:05;;;;;;;38.00;21.83;;;4.80;99.90;;;;;;4894496;28;86815;-80
2021/03/10 05:22:31;;;;;;;37.67;21.80;;;4.90;99.90;;;;;;4897064;28;86293;-82
2021/03/10 05:24:57;;;;;;;39.65;21.08;;;4.80;99.90;;;;;;4894078;28;88569;-82
2021/03/10 05:27:24;;;;;;;39.45;21.27;;;4.80;99.90;;;;;;4897675;28;87108;-80
2021/03/10 05:29:51;;;;;;;38.65;21.10;;;4.80;99.90;;;;;;4894588;28;87990;-82
2021/03/10 05:32:17;;;;;;;37.20;20.73;;;4.80;99.90;;;;;;4893291;28;86949;-83
2021/03/10 05:34:43;;;;;;;35.92;20.63;;;4.70;99.90;;;;;;4893669;28;87839;-82
2021/03/10 05:37:09;;;;;;;41.30;20.58;;;4.70;99.90;;;;;;4895281;28;87250;-82
2021/03/10 05:39:34;;;;;;;36.03;20.02;;;4.70;99.90;;;;;;4895155;28;86208;-82
2021/03/10 05:42:01;;;;;;;41.08;21.92;;;4.70;99.90;;;;;;4896155;28;86810;-79
2021/03/10 05:44:27;;;;;;;37.90;21.10;;;4.70;99.90;;;;;;4896485;28;86723;-81
2021/03/10 05:46:54;;;;;;;41.38;21.60;;;4.60;99.90;;;;;;4900664;28;87398;-80
2021/03/10 05:49:21;;;;;;;39.67;21.88;;;4.60;99.90;;;;;;4899867;28;87054;-79
2021/03/10 05:51:48;;;;;;;41.55;23.70;;;4.70;99.90;;;;;;4899536;28;86322;-82
2021/03/10 05:54:14;;;;;;;46.03;23.75;;;4.80;99.90;;;;;;4910647;28;88042;-79
2021/03/10 05:56:43;;;;;;;44.58;24.55;;;4.70;99.90;;;;;;4910876;28;87992;-80
2021/03/10 05:59:08;;;;;;;42.78;24.33;;;4.70;99.90;;;;;;4909320;28;86973;-79
2021/03/10 06:01:34;;;;;;;44.17;23.38;;;4.70;99.90;;;;;;4911033;28;87038;-79
2021/03/10 06:04:03;;;;;;;39.53;22.77;;;4.80;99.90;;;;;;4909001;28;87697;-81
2021/03/10 06:06:37;;;;;;;46.03;24.35;;;4.80;99.90;;;;;;4898450;28;88191;-81
2021/03/10 06:09:29;;;;;;;46.35;24.52;;;4.90;99.90;;;;;;4910802;28;87889;-80
2021/03/10 06:12:00;;;;;;;44.80;23.67;;;4.90;99.90;;;;;;4898790;28;87333;-80
2021/03/10 06:14:27;;;;;;;46.35;23.73;;;4.90;99.90;;;;;;4909160;28;87886;-82
2021/03/10 06:17:19;;;;;;;40.40;22.85;;;4.90;99.90;;;;;;4889666;28;89462;-83
2021/03/10 06:19:46;;;;;;;37.60;21.33;;;4.80;99.90;;;;;;4895812;28;87667;-83
2021/03/10 06:22:13;;;;;;;38.20;20.80;;;4.80;99.90;;;;;;4909430;28;86924;-84
2021/03/10 06:24:39;;;;;;;36.22;20.27;;;4.80;99.90;;;;;;4905324;28;87480;-82
2021/03/10 06:27:05;;;;;;;37.45;21.17;;;4.80;99.90;;;;;;4904857;28;87965;-82
2021/03/10 06:29:31;;;;;;;35.95;21.77;;;4.90;99.90;;;;;;4905723;28;87067;-83
2021/03/10 06:32:06;;;;;;;37.35;21.17;;;5.00;99.90;;;;;;4908295;28;86329;-80
2021/03/10 06:34:47;;;;;;;37.20;22.05;;;5.00;99.90;;;;;;4891345;28;90298;-82
2021/03/10 06:37:23;;;;;;;37.55;20.73;;;5.10;99.90;;;;;;4893709;28;90418;-82
2021/03/10 06:39:49;;;;;;;40.65;21.17;;;5.20;99.90;;;;;;4912951;28;87182;-83
2021/03/10 06:42:18;;;;;;;36.30;20.55;;;5.30;99.90;;;;;;4901540;28;86842;-81
2021/03/10 06:44:51;;;;;;;42.70;21.40;;;5.40;99.90;;;;;;4908665;28;87839;-80
2021/03/10 06:47:18;;;;;;;39.78;22.70;;;5.50;99.90;;;;;;4907320;28;88393;-81
2021/03/10 06:49:52;;;;;;;41.75;22.80;;;5.50;99.90;;;;;;4910756;28;86807;-85
2021/03/10 06:52:18;;;;;;;40.28;21.58;;;5.50;99.90;;;;;;4890427;28;86637;-85
2021/03/10 06:54:55;;;;;;;41.95;21.73;;;5.50;99.90;;;;;;4909836;28;86984;-85
2021/03/10 06:57:21;;;;;;;40.63;21.95;;;5.50;99.90;;;;;;4908776;28;87091;-82
2021/03/10 06:59:48;;;;;;;38.30;21.75;;;5.50;99.90;;;;;;4900010;28;86812;-84
2021/03/10 07:02:17;;;;;;;34.97;19.77;;;5.50;99.90;;;;;;4909287;28;85581;-83
2021/03/10 07:04:48;;;;;;;37.45;21.58;;;5.60;99.90;;;;;;4897670;28;89026;-84
2021/03/10 07:07:15;;;;;;;42.35;22.77;;;5.50;99.90;;;;;;4907467;28;87185;-83
2021/03/10 07:09:41;;;;;;;44.08;23.15;;;5.60;99.90;;;;;;4917484;28;88355;-84
2021/03/10 07:12:12;;;;;;;40.25;22.02;;;5.60;99.90;;;;;;4910972;28;86199;-83
2021/03/10 07:14:39;;;;;;;41.83;22.77;;;5.60;99.90;;;;;;4897586;28;88897;-83
2021/03/10 07:17:11;;;;;;;40.67;22.27;;;5.60;99.90;;;;;;4917090;28;86966;-83
2021/03/10 07:19:37;;;;;;;43.92;25.10;;;5.60;99.90;;;;;;4914140;28;86887;-83
2021/03/10 07:22:14;;;;;;;45.22;23.73;;;5.60;99.90;;;;;;4918216;28;86622;-83
2021/03/10 07:25:00;;;;;;;40.88;22.75;;;5.70;99.90;;;;;;4917194;28;87128;-83
2021/03/10 07:27:35;;;;;;;44.03;24.73;;;5.80;99.90;;;;;;4919753;28;87217;-82
2021/03/10 07:30:01;;;;;;;39.60;22.73;;;5.90;99.90;;;;;;4914245;28;86958;-83
2021/03/10 07:32:28;;;;;;;38.30;23.35;;;6.10;99.90;;;;;;4916762;28;87020;-83
2021/03/10 07:35:04;;;;;;;40.75;23.02;;;6.40;99.90;;;;;;4912208;28;89600;-83
2021/03/10 07:37:30;;;;;;;39.33;22.60;;;7.00;99.90;;;;;;4918781;28;87398;-83
2021/03/10 07:40:13;;;;;;;40.90;23.05;;;7.30;99.30;;;;;;4918242;28;87091;-83
2021/03/10 07:42:56;;;;;;;34.38;20.05;;;7.60;98.30;;;;;;4917381;28;87017;-83
2021/03/10 07:45:41;;;;;;;41.55;22.88;;;8.20;95.90;;;;;;4902731;28;89059;-85
2021/03/10 07:48:07;;;;;;;35.22;21.17;;;8.20;96.10;;;;;;4925392;28;86312;-82
2021/03/10 07:50:46;;;;;;;33.70;21.08;;;8.80;96.00;;;;;;4912826;28;86356;-80
2021/03/10 07:53:12;;;;;;;28.20;18.67;;;9.20;93.40;;;;;;4930618;28;85449;-81
2021/03/10 07:55:50;;;;;;;28.73;17.55;;;9.40;91.50;;;;;;4935928;28;86684;-81
2021/03/10 07:58:30;;;;;;;26.25;17.17;;;9.80;90.00;;;;;;4930970;28;86505;-82
2021/03/10 08:00:56;;;;;;;25.67;16.42;;;10.40;88.50;;;;;;4897312;28;87074;-82
2021/03/10 08:03:32;;;;;;;38.50;22.10;;;11.60;86.70;;;;;;4928000;28;86807;-81
2021/03/10 08:06:05;;;;;;;35.17;21.15;;;12.80;79.70;;;;;;4915054;28;87337;-84
2021/03/10 08:08:42;;;;;;;29.20;19.60;;;13.40;74.20;;;;;;4911671;28;89584;-85
2021/03/10 08:11:18;;;;;;;25.20;17.65;;;13.50;73.50;;;;;;4908609;28;87324;-83
2021/03/10 08:13:47;;;;;;;29.25;17.73;;;13.40;70.90;;;;;;4903596;28;86967;-82
2021/03/10 08:16:13;;;;;;;28.05;17.95;;;12.80;70.40;;;;;;4910964;28;87124;-84
2021/03/10 08:18:45;;;;;;;24.92;17.17;;;12.20;73.60;;;;;;4899177;28;87137;-84
2021/03/10 08:21:13;;;;;;;28.67;19.52;;;11.90;76.20;;;;;;4909422;28;86998;-83
2021/03/10 08:23:40;;;;;;;31.20;20.15;;;12.00;76.10;;;;;;4906049;28;86815;-84
2021/03/10 08:26:07;;;;;;;30.48;19.10;;;11.80;78.90;;;;;;4905752;28;90010;-83
2021/03/10 08:28:35;;;;;;;33.38;20.10;;;11.90;80.90;;;;;;4905431;28;88156;-84
2021/03/10 08:31:03;;;;;;;31.33;19.45;;;12.10;81.40;;;;;;4900589;28;86547;-82
2021/03/10 08:33:29;;;;;;;30.00;20.02;;;12.20;79.90;;;;;;4882270;28;87130;-82
2021/03/10 08:35:55;;;;;;;30.10;20.05;;;12.30;79.60;;;;;;4909980;28;88500;-82
2021/03/10 08:38:21;;;;;;;27.98;18.95;;;13.10;78.60;;;;;;4905379;28;87551;-82
2021/03/10 08:40:47;;;;;;;28.15;19.05;;;14.60;75.60;;;;;;4889756;28;86946;-82
2021/03/10 08:43:20;;;;;;;29.77;19.50;;;16.20;69.80;;;;;;4909937;28;86426;-82
2021/03/10 08:45:46;;;;;;;26.52;19.30;;;17.90;64.60;;;;;;4908700;28;88480;-82
2021/03/10 08:48:14;;;;;;;29.02;19.88;;;19.20;57.70;;;;;;4915097;28;87977;-83
2021/03/10 08:50:41;;;;;;;25.73;19.13;;;19.60;51.30;;;;;;4904980;28;87876;-84
2021/03/10 08:53:09;;;;;;;25.15;18.95;;;19.90;51.40;;;;;;4908653;28;87097;-84
2021/03/10 08:55:35;;;;;;;25.48;18.40;;;20.50;49.70;;;;;;4910757;28;86970;-83
2021/03/10 08:58:08;;;;;;;26.02;18.65;;;21.10;48.60;;;;;;4905832;28;87231;-83
2021/03/10 09:00:34;;;;;;;27.17;19.63;;;21.40;46.20;;;;;;4907349;28;86906;-83
2021/03/10 09:03:09;;;;;;;26.75;20.13;;;21.80;44.90;;;;;;4913736;28;87065;-83
2021/03/10 09:05:36;;;;;;;26.63;20.73;;;21.30;43.60;;;;;;4912991;28;87521;-83
2021/03/10 09:08:02;;;;;;;26.92;20.63;;;21.30;44.30;;;;;;4903615;28;86474;-83
2021/03/10 09:10:28;;;;;;;29.17;20.35;;;21.00;44.20;;;;;;4887565;28;86957;-84
2021/03/10 09:12:54;;;;;;;26.55;21.10;;;21.20;44.20;;;;;;4886153;28;87427;-82
2021/03/10 09:15:23;;;;;;;26.92;19.48;;;21.20;43.50;;;;;;4908814;28;87746;-83
2021/03/10 09:17:49;;;;;;;25.48;20.63;;;21.20;42.80;;;;;;4899663;28;90071;-83
2021/03/10 09:20:24;;;;;;;28.42;21.25;;;21.70;41.40;;;;;;4916071;28;86884;-83
2021/03/10 09:22:51;;;;;;;27.83;20.88;;;22.40;39.80;;;;;;4895085;28;87689;-82
2021/03/10 09:25:22;;;;;;;24.58;20.63;;;21.90;39.90;;;;;;4905491;28;88694;-82
2021/03/10 09:27:48;;;;;;;29.80;20.25;;;21.80;40.80;;;;;;4887090;28;88760;-81
2021/03/10 09:30:27;;;;;;;25.38;20.90;;;22.10;40.80;;;;;;4911327;28;86902;-82
2021/03/10 09:32:53;;;;;;;27.73;21.45;;;21.80;39.10;;;;;;4909143;28;87073;-83
2021/03/10 09:35:21;;;;;;;29.58;20.55;;;21.20;40.80;;;;;;4908881;28;87841;-83
2021/03/10 09:37:59;;;;;;;23.60;19.88;;;21.20;40.70;;;;;;4910243;28;87223;-83
2021/03/10 09:40:43;;;;;;;27.00;20.42;;;20.80;40.80;;;;;;4911080;28;87824;-83
2021/03/10 09:43:11;;;;;;;24.70;19.83;;;20.20;41.00;;;;;;4904929;28;86917;-82
2021/03/10 09:45:39;;;;;;;26.88;20.75;;;19.40;42.60;;;;;;4910365;28;88243;-85
2021/03/10 09:48:19;;;;;;;26.55;21.08;;;18.50;43.60;;;;;;4915153;28;86831;-82
2021/03/10 09:50:47;;;;;;;27.50;20.00;;;17.80;45.30;;;;;;4904817;28;86750;-82
2021/03/10 09:53:21;;;;;;;27.30;20.67;;;17.90;46.20;;;;;;4904093;28;87310;-83
2021/03/10 09:55:47;;;;;;;27.83;19.45;;;19.00;44.80;;;;;;4887649;28;90509;-82
2021/03/10 09:58:13;;;;;;;40.03;21.20;;;20.40;43.40;;;;;;4911133;28;86577;-83
2021/03/10 10:00:41;;;;;;;30.40;21.38;;;20.80;42.00;;;;;;4914106;28;88087;-83
2021/03/10 10:03:08;;;;;;;29.55;21.92;;;20.50;40.80;;;;;;4912475;28;87005;-83
2021/03/10 10:05:39;;;;;;;26.08;20.92;;;19.50;40.90;;;;;;4906370;28;88056;-83
2021/03/10 10:08:06;;;;;;;28.45;20.85;;;18.30;42.00;;;;;;4909334;28;88508;-83
2021/03/10 10:10:36;;;;;;;33.38;21.90;;;17.30;44.00;;;;;;4910683;28;87046;-82
2021/03/10 10:13:04;;;;;;;31.20;20.97;;;16.60;44.70;;;;;;4910058;28;86882;-83
2021/03/10 10:15:32;;;;;;;28.33;20.20;;;16.40;45.50;;;;;;4909059;28;86932;-84
2021/03/10 10:18:00;;;;;;;28.05;20.48;;;16.30;46.10;;;;;;4910878;28;87041;-84
2021/03/10 10:20:29;;;;;;;34.53;23.30;;;17.00;46.20;;;;;;4910407;28;87009;-83
2021/03/10 10:22:56;;;;;;;29.83;20.67;;;18.60;45.10;;;;;;4908642;28;85815;-83
2021/03/10 10:25:22;;;;;;;22.23;16.92;;;20.50;42.40;;;;;;4882306;28;90398;-85
2021/03/10 10:27:50;;;;;;;28.27;19.15;;;22.20;39.70;;;;;;4908494;28;87107;-82
2021/03/10 10:30:18;;;;;;;19.42;15.27;;;23.00;37.80;;;;;;4906096;28;87610;-82
2021/03/10 10:32:45;;;;;;;21.40;16.20;;;24.10;35.40;;;;;;4900605;28;87220;-82
2021/03/10 10:35:13;;;;;;;21.90;16.80;;;23.80;33.60;;;;;;4908127;28;87606;-83
2021/03/10 10:37:39;;;;;;;20.58;15.90;;;23.00;34.90;;;;;;4903973;28;89006;-83
2021/03/10 10:40:08;;;;;;;20.67;16.98;;;21.80;36.10;;;;;;4909842;28;86862;-81
2021/03/10 10:42:34;;;;;;;21.67;17.38;;;20.40;37.50;;;;;;4904017;28;87051;-82
2021/03/10 10:45:00;;;;;;;19.40;15.25;;;19.10;38.90;;;;;;4899785;28;87199;-82
2021/03/10 10:47:26;;;;;;;19.48;15.80;;;18.00;40.50;;;;;;4908092;28;88320;-84
2021/03/10 10:49:53;;;;;;;21.67;16.00;;;17.10;41.90;;;;;;4914212;28;86442;-82
2021/03/10 10:52:20;;;;;;;19.73;15.27;;;16.50;42.90;;;;;;4910000;28;86778;-82
2021/03/10 10:54:46;;;;;;;21.95;15.05;;;16.00;43.80;;;;;;4907205;28;87753;-82
2021/03/10 10:57:12;;;;;;;22.27;15.25;;;15.40;44.10;;;;;;4911749;28;87890;-82
2021/03/10 10:59:38;;;;;;;19.80;14.40;;;15.10;44.80;;;;;;4914746;28;86512;-83
2021/03/10 11:02:04;;;;;;;17.65;13.70;;;14.80;45.60;;;;;;4902503;28;87427;-83
2021/03/10 11:04:42;;;;;;;15.15;11.25;;;14.60;45.80;;;;;;4928584;28;87346;-82
2021/03/10 11:07:08;;;;;;;14.35;10.68;;;14.40;46.00;;;;;;4928962;28;86219;-84
2021/03/10 11:09:36;;;;;;;16.98;12.77;;;14.50;45.90;;;;;;4928397;28;86120;-83
2021/03/10 11:12:01;;;;;;;18.92;12.57;;;14.70;46.30;;;;;;4927356;28;85478;-83
2021/03/10 11:14:27;;;;;;;15.70;11.70;;;16.30;45.60;;;;;;4925760;28;87580;-82
2021/03/10 11:16:56;;;;;;;13.82;10.88;;;18.10;43.30;;;;;;4916913;28;86999;-84
2021/03/10 11:19:22;;;;;;;17.95;12.77;;;19.50;40.50;;;;;;4917586;28;87991;-83
2021/03/10 11:21:48;;;;;;;16.48;12.43;;;19.80;38.00;;;;;;4917528;28;86783;-85
2021/03/10 11:24:15;;;;;;;15.90;12.82;;;19.50;38.10;;;;;;4918442;28;86614;-84
2021/03/10 11:26:41;;;;;;;17.52;13.30;;;17.70;39.60;;;;;;4916583;28;86903;-84
2021/03/10 11:29:06;;;;;;;17.70;13.48;;;16.10;42.90;;;;;;4913831;28;86937;-84
2021/03/10 11:31:32;;;;;;;15.95;12.35;;;16.40;43.70;;;;;;4916382;28;87688;-84
2021/03/10 11:33:58;;;;;;;16.70;12.98;;;18.40;43.10;;;;;;4908754;28;88342;-84
2021/03/10 11:36:23;;;;;;;17.10;12.98;;;20.80;39.60;;;;;;4914894;28;86872;-84
2021/03/10 11:38:49;;;;;;;15.05;12.23;;;22.80;35.60;;;;;;4915432;28;86197;-84
2021/03/10 11:41:15;;;;;;;16.58;12.82;;;23.60;34.60;;;;;;4913822;28;86960;-84
2021/03/10 11:43:40;;;;;;;16.33;13.02;;;24.40;33.10;;;;;;4915935;28;88214;-84
2021/03/10 11:46:06;;;;;;;13.85;12.25;;;25.10;31.30;;;;;;4921003;28;88016;-83
2021/03/10 11:48:31;;;;;;;15.00;12.50;;;25.70;31.20;;;;;;4923000;28;87123;-83
2021/03/10 11:50:57;;;;;;;13.90;12.40;;;26.30;30.40;;;;;;4913763;28;86447;-83
2021/03/10 11:53:23;;;;;;;15.02;12.15;;;27.00;29.50;;;;;;4917789;28;86575;-85
2021/03/10 11:55:49;;;;;;;15.13;12.13;;;26.70;29.50;;;;;;4922714;28;86295;-82
2021/03/10 11:58:15;;;;;;;18.02;12.63;;;26.00;30.00;;;;;;4913375;28;86819;-83
2021/03/10 12:00:41;;;;;;;13.88;12.38;;;25.50;30.10;;;;;;4902558;28;87113;-83
2021/03/10 12:03:07;;;;;;;15.60;12.95;;;24.60;30.40;;;;;;4916913;28;86984;-82
2021/03/10 12:05:34;;;;;;;14.82;12.90;;;23.40;31.20;;;;;;4911447;28;87669;-83
2021/03/10 12:08:00;;;;;;;15.95;12.80;;;22.30;32.00;;;;;;4910101;28;88844;-83
2021/03/10 12:10:26;;;;;;;14.68;12.13;;;21.30;33.40;;;;;;4913020;28;87035;-82
2021/03/10 12:12:52;;;;;;;14.95;12.50;;;20.30;34.00;;;;;;4912139;28;89143;-82
2021/03/10 12:15:18;;;;;;;15.73;12.20;;;19.50;35.10;;;;;;4915535;28;86935;-83
2021/03/10 12:17:44;;;;;;;15.63;12.60;;;19.10;36.20;;;;;;4916177;28;86559;-82
2021/03/10 12:20:10;;;;;;;15.30;11.13;;;18.90;36.60;;;;;;4911205;28;86792;-83
2021/03/10 12:22:37;;;;;;;13.90;11.77;;;19.80;36.90;;;;;;4912724;28;87602;-84
2021/03/10 12:25:04;;;;;;;15.02;12.35;;;21.00;35.60;;;;;;4910609;28;86410;-84
2021/03/10 12:27:30;;;;;;;12.93;10.98;;;22.30;33.50;;;;;;4892980;28;86543;-83
2021/03/10 12:29:57;;;;;;;15.50;11.80;;;23.20;33.40;;;;;;4916686;28;86617;-84
2021/03/10 12:32:24;;;;;;;14.45;11.77;;;23.30;32.10;;;;;;4909781;28;88352;-84
2021/03/10 12:34:51;;;;;;;14.32;11.88;;;23.60;32.30;;;;;;4905389;28;87189;-84
2021/03/10 12:37:16;;;;;;;17.02;13.07;;;24.40;31.50;;;;;;4915811;28;86896;-85
2021/03/10 12:39:45;;;;;;;14.23;11.68;;;24.60;29.80;;;;;;4919046;28;86945;-84
2021/03/10 12:42:12;;;;;;;15.45;13.02;;;25.30;30.70;;;;;;4900904;28;90660;-83
2021/03/10 12:44:41;;;;;;;13.23;11.85;;;26.30;29.90;;;;;;4919806;28;87153;-84
2021/03/10 12:47:08;;;;;;;13.70;12.30;;;27.30;29.40;;;;;;4917228;28;86912;-85
2021/03/10 12:49:34;;;;;;;13.75;11.95;;;28.30;28.60;;;;;;4907149;28;85773;-85
2021/03/10 12:52:00;;;;;;;15.23;12.32;;;28.80;28.30;;;;;;4912999;28;87057;-83
2021/03/10 12:54:26;;;;;;;13.38;12.07;;;28.30;28.10;;;;;;4914252;28;86511;-85
2021/03/10 12:56:52;;;;;;;14.63;12.40;;;27.50;28.20;;;;;;4917415;28;87967;-84
2021/03/10 12:59:19;;;;;;;13.02;11.73;;;27.00;28.50;;;;;;4902276;28;86899;-84
2021/03/10 13:01:45;;;;;;;14.32;12.82;;;26.80;28.60;;;;;;4921932;28;86775;-84
2021/03/10 13:04:11;;;;;;;15.85;13.02;;;27.10;28.10;;;;;;4909034;28;87377;-84
2021/03/10 13:06:36;;;;;;;14.95;13.13;;;27.20;27.90;;;;;;4890103;28;87035;-83
2021/03/10 13:09:02;;;;;;;14.27;12.77;;;26.20;27.70;;;;;;4908495;28;87133;-85
2021/03/10 13:11:28;;;;;;;13.55;12.15;;;26.70;28.50;;;;;;4908178;28;90353;-84
2021/03/10 13:13:54;;;;;;;13.25;11.77;;;27.40;28.10;;;;;;4913388;28;86239;-84
2021/03/10 13:16:20;;;;;;;11.23;10.10;;;27.20;27.60;;;;;;4899945;28;87072;-84
2021/03/10 13:18:46;;;;;;;12.75;11.45;;;27.30;28.00;;;;;;4909705;28;87002;-84
2021/03/10 13:21:11;;;;;;;12.55;11.25;;;26.80;28.00;;;;;;4895282;28;90784;-84
2021/03/10 13:23:37;;;;;;;12.15;10.95;;;25.70;28.00;;;;;;4909870;28;88245;-83
2021/03/10 13:26:03;;;;;;;11.98;10.80;;;24.40;29.30;;;;;;4914570;28;86889;-84
2021/03/10 13:28:29;;;;;;;12.95;10.65;;;23.60;29.30;;;;;;4904372;28;86783;-84
2021/03/10 13:30:55;;;;;;;12.82;11.45;;;22.80;30.10;;;;;;4911959;28;87208;-83
2021/03/10 13:33:20;;;;;;;11.60;10.15;;;22.20;31.60;;;;;;4914803;28;87970;-83
2021/03/10 13:35:46;;;;;;;11.77;10.52;;;22.10;31.40;;;;;;4902946;28;86645;-84
2021/03/10 13:38:13;;;;;;;12.38;10.65;;;22.20;32.60;;;;;;4899076;28;86024;-83
2021/03/10 13:40:39;;;;;;;13.63;11.10;;;22.00;31.40;;;;;;4908367;28;86896;-83
2021/03/10 13:43:06;;;;;;;11.68;10.10;;;21.70;31.50;;;;;;4907193;28;86902;-83
2021/03/10 13:45:32;;;;;;;12.60;11.00;;;21.50;31.90;;;;;;4900526;28;87651;-84
2021/03/10 13:47:58;;;;;;;10.60;9.55;;;21.70;32.20;;;;;;4896496;28;87062;-84
2021/03/10 13:50:24;;;;;;;13.38;10.68;;;21.80;31.80;;;;;;4903181;28;86954;-84
2021/03/10 13:52:50;;;;;;;11.85;10.38;;;22.00;31.90;;;;;;4911973;28;86909;-83
2021/03/10 13:55:17;;;;;;;12.15;10.93;;;22.00;31.90;;;;;;4911577;28;86878;-84
2021/03/10 13:57:42;;;;;;;11.57;10.38;;;22.00;31.30;;;;;;4910844;28;87021;-85
2021/03/10 14:00:09;;;;;;;11.55;10.27;;;21.70;31.60;;;;;;4909376;28;86882;-84
2021/03/10 14:02:34;;;;;;;10.55;9.55;;;21.20;31.90;;;;;;4882433;28;91809;-84
2021/03/10 14:05:00;;;;;;;12.05;10.48;;;20.90;32.30;;;;;;4900117;28;86572;-83
2021/03/10 14:07:26;;;;;;;12.07;10.43;;;20.80;32.70;;;;;;4921963;28;86736;-84
2021/03/10 14:09:52;;;;;;;13.00;10.30;;;20.70;32.70;;;;;;4916736;28;88524;-84
2021/03/10 14:12:18;;;;;;;13.05;10.38;;;20.80;32.80;;;;;;4912653;28;87846;-84
2021/03/10 14:14:43;;;;;;;11.02;9.85;;;21.20;32.60;;;;;;4916797;28;87233;-84
2021/03/10 14:17:09;;;;;;;10.52;9.05;;;21.70;32.70;;;;;;4912100;28;87379;-85
2021/03/10 14:19:35;;;;;;;12.55;10.48;;;22.30;31.70;;;;;;4914642;28;90515;-84
2021/03/10 14:22:01;;;;;;;11.85;10.40;;;22.90;31.10;;;;;;4905287;28;87861;-84
2021/03/10 14:24:27;;;;;;;12.13;10.85;;;23.20;30.50;;;;;;4914803;28;86913;-84
2021/03/10 14:26:52;;;;;;;12.05;10.77;;;23.50;30.20;;;;;;4914452;28;86067;-85
2021/03/10 14:29:18;;;;;;;12.05;10.77;;;23.60;30.40;;;;;;4915626;28;89880;-84
2021/03/10 14:31:44;;;;;;;12.00;10.80;;;23.70;30.00;;;;;;4909745;28;87023;-84
2021/03/10 14:34:10;;;;;;;11.73;10.52;;;23.70;29.90;;;;;;4915273;28;87418;-84
2021/03/10 14:36:35;;;;;;;11.85;10.65;;;23.60;29.90;;;;;;4919800;28;86960;-84
2021/03/10 14:39:01;;;;;;;13.57;10.95;;;23.30;30.00;;;;;;4914021;28;87005;-85
2021/03/10 14:41:27;;;;;;;12.40;11.00;;;23.30;29.80;;;;;;4916119;28;86700;-84
2021/03/10 14:43:52;;;;;;;13.45;12.02;;;23.30;30.10;;;;;;4915754;28;86951;-84
2021/03/10 14:46:18;;;;;;;12.68;11.38;;;23.10;29.90;;;;;;4912822;28;87438;-84
2021/03/10 14:48:45;;;;;;;12.85;11.55;;;22.80;30.20;;;;;;4916322;28;88459;-85
2021/03/10 14:51:14;;;;;;;14.02;10.95;;;22.60;30.50;;;;;;4916369;28;86173;-84
2021/03/10 14:53:40;;;;;;;11.98;10.77;;;22.40;30.70;;;;;;4915232;28;86297;-85
2021/03/10 14:56:05;;;;;;;15.02;11.65;;;22.30;30.80;;;;;;4912184;28;86435;-85
2021/03/10 14:58:31;;;;;;;11.73;10.50;;;22.10;30.80;;;;;;4909229;28;87663;-84
2021/03/10 15:00:58;;;;;;;12.65;11.18;;;22.00;31.00;;;;;;4914295;28;87994;-85
2021/03/10 15:03:24;;;;;;;11.65;10.38;;;21.90;31.30;;;;;;4913818;28;86786;-85
2021/03/10 15:05:50;;;;;;;11.55;10.25;;;21.90;31.10;;;;;;4900125;28;87989;-85
2021/03/10 15:08:15;;;;;;;12.35;10.80;;;21.80;31.30;;;;;;4916178;28;88276;-85
2021/03/10 15:10:41;;;;;;;12.45;11.15;;;21.60;31.30;;;;;;4916074;28;87205;-85
2021/03/10 15:13:07;;;;;;;12.32;10.93;;;21.50;31.40;;;;;;4917878;28;86068;-84
2021/03/10 15:15:33;;;;;;;12.15;10.88;;;21.30;31.70;;;;;;4917819;28;86285;-85
2021/03/10 15:17:59;;;;;;;13.25;11.55;;;21.10;31.80;;;;;;4900958;28;89349;-84
2021/03/10 15:20:25;;;;;;;13.30;11.00;;;21.00;31.70;;;;;;4917966;28;87245;-84
2021/03/10 15:22:50;;;;;;;12.43;9.85;;;20.90;31.90;;;;;;4909958;28;87670;-85
2021/03/10 15:25:17;;;;;;;15.35;10.80;;;20.70;32.20;;;;;;4920858;28;86292;-84
2021/03/10 15:27:43;;;;;;;12.77;10.23;;;20.50;32.60;;;;;;4918208;28;88493;-86
2021/03/10 15:30:14;;;;;;;12.68;10.55;;;20.30;32.40;;;;;;4919659;28;86188;-86
2021/03/10 15:32:40;;;;;;;10.85;9.73;;;19.90;33.20;;;;;;4922937;28;86861;-83
2021/03/10 15:35:09;;;;;;;11.98;10.23;;;19.70;33.40;;;;;;4927007;28;86298;-83
2021/03/10 15:37:35;;;;;;;13.35;10.48;;;19.50;33.80;;;;;;4921951;28;88610;-83
2021/03/10 15:40:10;;;;;;;11.75;10.50;;;19.30;34.40;;;;;;4927592;28;86172;-84
2021/03/10 15:42:36;;;;;;;12.50;10.48;;;19.20;34.50;;;;;;4914052;28;86855;-84
2021/03/10 15:45:03;;;;;;;13.00;10.80;;;19.00;34.90;;;;;;4916245;28;87171;-84
2021/03/10 15:47:29;;;;;;;13.25;10.77;;;18.70;35.30;;;;;;4912786;28;89290;-84
2021/03/10 15:49:55;;;;;;;13.77;11.48;;;18.40;35.50;;;;;;4925045;28;87304;-85
2021/03/10 15:52:20;;;;;;;14.55;10.80;;;18.00;35.70;;;;;;4918580;28;86570;-84
2021/03/10 15:54:46;;;;;;;14.27;10.85;;;17.70;36.20;;;;;;4921349;28;86628;-84
2021/03/10 15:57:12;;;;;;;13.70;11.55;;;17.10;36.60;;;;;;4926551;28;87385;-84
2021/03/10 15:59:37;;;;;;;13.45;10.63;;;16.70;37.20;;;;;;4918412;28;87207;-84
2021/03/10 16:02:03;;;;;;;13.75;10.90;;;16.20;38.20;;;;;;4920146;28;86925;-84
2021/03/10 16:04:29;;;;;;;14.43;11.50;;;15.60;39.10;;;;;;4905583;28;86781;-85
2021/03/10 16:06:55;;;;;;;15.35;11.38;;;15.20;39.90;;;;;;4921402;28;87101;-84
2021/03/10 16:09:20;;;;;;;16.30;11.70;;;14.80;40.70;;;;;;4929612;28;86862;-83
2021/03/10 16:11:46;;;;;;;14.05;10.55;;;14.40;41.50;;;;;;4922393;28;87845;-84
2021/03/10 16:14:12;;;;;;;13.77;10.13;;;14.10;42.20;;;;;;4921149;28;87164;-83
2021/03/10 16:16:37;;;;;;;13.77;9.98;;;13.80;42.80;;;;;;4903614;28;89693;-84
2021/03/10 16:19:03;;;;;;;21.00;12.05;;;13.50;43.10;;;;;;4921435;28;87149;-84